sensor_id;sensor_type;location;lat;lon;timestamp;P1;durP1;ratioP1;P2;durP2;ratioP2
54191;SDS011;40101;53.002;6.488;2022-07-06T00:01:54;3.80;;;1.88;;
54191;SDS011;40101;53.002;6.488;2022-07-06T00:04:20;3.60;;;1.30;;
54191;SDS011;40101;53.002;6.488;2022-07-06T00:06:46;6.13;;;2.38;;
54191;SDS011;40101;53.002;6.488;2022-07-06T00:09:12;4.97;;;1.20;;
54191;SDS011;40101;53.002;6.488;2022-07-06T00:11:38;8.32;;;2.42;;
54191;SDS011;40101;53.002;6.488;2022-07-06T00:14:07;4.38;;;2.00;;
54191;SDS011;40101;53.002;6.488;2022-07-06T00:16:32;10.05;;;3.17;;
54191;SDS011;40101;53.002;6.488;2022-07-06T00:18:58;5.05;;;2.17;;
54191;SDS011;40101;53.002;6.488;2022-07-06T00:21:27;4.00;;;1.65;;
54191;SDS011;40101;53.002;6.488;2022-07-06T00:23:52;4.03;;;1.10;;
54191;SDS011;40101;53.002;6.488;2022-07-06T00:26:19;4.35;;;1.80;;
54191;SDS011;40101;53.002;6.488;2022-07-06T00:28:44;5.22;;;1.38;;
54191;SDS011;40101;53.002;6.488;2022-07-06T00:31:10;4.35;;;2.35;;
54191;SDS011;40101;53.002;6.488;2022-07-06T00:33:36;5.97;;;1.63;;
54191;SDS011;40101;53.002;6.488;2022-07-06T00:36:04;3.65;;;1.55;;
54191;SDS011;40101;53.002;6.488;2022-07-06T00:38:30;7.03;;;1.80;;
54191;SDS011;40101;53.002;6.488;2022-07-06T00:40:56;2.72;;;2.17;;
54191;SDS011;40101;53.002;6.488;2022-07-06T00:43:22;5.53;;;1.63;;
54191;SDS011;40101;53.002;6.488;2022-07-06T00:45:50;3.08;;;1.77;;
54191;SDS011;40101;53.002;6.488;2022-07-06T00:48:16;6.53;;;1.70;;
54191;SDS011;40101;53.002;6.488;2022-07-06T00:50:42;5.82;;;1.80;;
54191;SDS011;40101;53.002;6.488;2022-07-06T00:53:08;5.40;;;1.58;;
54191;SDS011;40101;53.002;6.488;2022-07-06T00:55:35;2.47;;;1.30;;
54191;SDS011;40101;53.002;6.488;2022-07-06T00:58:08;5.03;;;2.13;;
54191;SDS011;40101;53.002;6.488;2022-07-06T01:00:34;4.40;;;2.05;;
54191;SDS011;40101;53.002;6.488;2022-07-06T01:03:01;6.03;;;1.80;;
54191;SDS011;40101;53.002;6.488;2022-07-06T01:05:27;4.10;;;1.60;;
54191;SDS011;40101;53.002;6.488;2022-07-06T01:07:53;5.20;;;1.55;;
54191;SDS011;40101;53.002;6.488;2022-07-06T01:13:08;8.23;;;2.28;;
54191;SDS011;40101;53.002;6.488;2022-07-06T01:15:33;8.85;;;3.13;;
54191;SDS011;40101;53.002;6.488;2022-07-06T01:17:59;4.97;;;1.90;;
54191;SDS011;40101;53.002;6.488;2022-07-06T01:20:25;5.10;;;2.08;;
54191;SDS011;40101;53.002;6.488;2022-07-06T01:22:51;7.47;;;1.98;;
54191;SDS011;40101;53.002;6.488;2022-07-06T01:25:19;6.15;;;1.80;;
54191;SDS011;40101;53.002;6.488;2022-07-06T01:27:46;9.05;;;2.60;;
54191;SDS011;40101;53.002;6.488;2022-07-06T01:30:13;4.85;;;1.90;;
54191;SDS011;40101;53.002;6.488;2022-07-06T01:32:41;4.25;;;1.40;;
54191;SDS011;40101;53.002;6.488;2022-07-06T01:35:08;5.10;;;2.15;;
54191;SDS011;40101;53.002;6.488;2022-07-06T01:37:35;3.88;;;1.65;;
54191;SDS011;40101;53.002;6.488;2022-07-06T01:40:03;3.58;;;1.77;;
54191;SDS011;40101;53.002;6.488;2022-07-06T01:42:30;4.53;;;1.55;;
54191;SDS011;40101;53.002;6.488;2022-07-06T01:45:02;4.18;;;1.58;;
54191;SDS011;40101;53.002;6.488;2022-07-06T01:47:32;6.53;;;2.65;;
54191;SDS011;40101;53.002;6.488;2022-07-06T01:49:59;2.70;;;1.58;;
54191;SDS011;40101;53.002;6.488;2022-07-06T01:52:26;5.32;;;1.95;;
54191;SDS011;40101;53.002;6.488;2022-07-06T01:54:55;4.05;;;1.98;;
54191;SDS011;40101;53.002;6.488;2022-07-06T01:57:21;6.50;;;2.85;;
54191;SDS011;40101;53.002;6.488;2022-07-06T01:59:47;5.22;;;1.98;;
54191;SDS011;40101;53.002;6.488;2022-07-06T02:02:13;3.40;;;2.17;;
54191;SDS011;40101;53.002;6.488;2022-07-06T02:04:40;5.53;;;2.17;;
54191;SDS011;40101;53.002;6.488;2022-07-06T02:07:06;6.30;;;1.65;;
54191;SDS011;40101;53.002;6.488;2022-07-06T02:09:34;6.70;;;2.47;;
54191;SDS011;40101;53.002;6.488;2022-07-06T02:12:00;6.18;;;1.40;;
54191;SDS011;40101;53.002;6.488;2022-07-06T02:14:25;3.72;;;1.65;;
54191;SDS011;40101;53.002;6.488;2022-07-06T02:16:51;4.57;;;2.15;;
54191;SDS011;40101;53.002;6.488;2022-07-06T02:19:17;3.92;;;1.83;;
54191;SDS011;40101;53.002;6.488;2022-07-06T02:21:43;3.60;;;1.67;;
54191;SDS011;40101;53.002;6.488;2022-07-06T02:24:08;5.80;;;1.75;;
54191;SDS011;40101;53.002;6.488;2022-07-06T02:26:34;4.57;;;2.10;;
54191;SDS011;40101;53.002;6.488;2022-07-06T02:29:00;4.78;;;1.77;;
54191;SDS011;40101;53.002;6.488;2022-07-06T02:31:28;6.60;;;1.60;;
54191;SDS011;40101;53.002;6.488;2022-07-06T02:33:53;4.85;;;1.85;;
54191;SDS011;40101;53.002;6.488;2022-07-06T02:36:19;3.83;;;1.60;;
54191;SDS011;40101;53.002;6.488;2022-07-06T02:38:45;4.80;;;1.33;;
54191;SDS011;40101;53.002;6.488;2022-07-06T02:41:10;3.83;;;1.40;;
54191;SDS011;40101;53.002;6.488;2022-07-06T02:43:37;3.85;;;1.60;;
54191;SDS011;40101;53.002;6.488;2022-07-06T02:46:04;4.97;;;1.15;;
54191;SDS011;40101;53.002;6.488;2022-07-06T02:48:29;4.35;;;1.55;;
54191;SDS011;40101;53.002;6.488;2022-07-06T02:50:55;3.17;;;1.60;;
54191;SDS011;40101;53.002;6.488;2022-07-06T02:53:21;5.15;;;1.48;;
54191;SDS011;40101;53.002;6.488;2022-07-06T02:55:46;3.70;;;1.20;;
54191;SDS011;40101;53.002;6.488;2022-07-06T02:58:12;4.95;;;1.65;;
54191;SDS011;40101;53.002;6.488;2022-07-06T03:00:38;4.72;;;2.05;;
54191;SDS011;40101;53.002;6.488;2022-07-06T03:03:03;4.68;;;1.30;;
54191;SDS011;40101;53.002;6.488;2022-07-06T03:05:29;3.35;;;1.67;;
54191;SDS011;40101;53.002;6.488;2022-07-06T03:07:55;6.93;;;1.92;;
54191;SDS011;40101;53.002;6.488;2022-07-06T03:10:23;5.13;;;1.83;;
54191;SDS011;40101;53.002;6.488;2022-07-06T03:12:49;10.57;;;1.92;;
54191;SDS011;40101;53.002;6.488;2022-07-06T03:15:14;4.15;;;1.88;;
54191;SDS011;40101;53.002;6.488;2022-07-06T03:17:40;3.75;;;1.50;;
54191;SDS011;40101;53.002;6.488;2022-07-06T03:20:06;6.32;;;1.70;;
54191;SDS011;40101;53.002;6.488;2022-07-06T03:22:32;2.85;;;1.60;;
54191;SDS011;40101;53.002;6.488;2022-07-06T03:24:57;6.07;;;1.20;;
54191;SDS011;40101;53.002;6.488;2022-07-06T03:27:23;2.97;;;1.60;;
54191;SDS011;40101;53.002;6.488;2022-07-06T03:29:49;6.25;;;1.85;;
54191;SDS011;40101;53.002;6.488;2022-07-06T03:32:14;3.55;;;2.00;;
54191;SDS011;40101;53.002;6.488;2022-07-06T03:34:40;3.78;;;2.10;;
54191;SDS011;40101;53.002;6.488;2022-07-06T03:37:05;6.72;;;2.50;;
54191;SDS011;40101;53.002;6.488;2022-07-06T03:39:31;3.63;;;2.35;;
54191;SDS011;40101;53.002;6.488;2022-07-06T03:41:57;4.28;;;1.80;;
54191;SDS011;40101;53.002;6.488;2022-07-06T03:44:23;5.05;;;1.67;;
54191;SDS011;40101;53.002;6.488;2022-07-06T03:46:48;6.47;;;2.03;;
54191;SDS011;40101;53.002;6.488;2022-07-06T03:49:16;5.65;;;2.17;;
54191;SDS011;40101;53.002;6.488;2022-07-06T03:51:41;3.38;;;1.33;;
54191;SDS011;40101;53.002;6.488;2022-07-06T03:54:07;5.03;;;1.67;;
54191;SDS011;40101;53.002;6.488;2022-07-06T03:56:33;4.00;;;1.48;;
54191;SDS011;40101;53.002;6.488;2022-07-06T03:58:59;6.03;;;2.63;;
54191;SDS011;40101;53.002;6.488;2022-07-06T04:01:26;1.95;;;1.20;;
54191;SDS011;40101;53.002;6.488;2022-07-06T04:03:53;3.42;;;1.48;;
54191;SDS011;40101;53.002;6.488;2022-07-06T04:06:18;2.13;;;0.90;;
54191;SDS011;40101;53.002;6.488;2022-07-06T04:08:44;7.03;;;1.67;;
54191;SDS011;40101;53.002;6.488;2022-07-06T04:11:10;5.88;;;1.40;;
54191;SDS011;40101;53.002;6.488;2022-07-06T04:13:36;9.82;;;1.50;;
54191;SDS011;40101;53.002;6.488;2022-07-06T04:16:04;3.20;;;1.00;;
54191;SDS011;40101;53.002;6.488;2022-07-06T04:18:31;5.05;;;1.50;;
54191;SDS011;40101;53.002;6.488;2022-07-06T04:20:56;4.30;;;1.30;;
54191;SDS011;40101;53.002;6.488;2022-07-06T04:23:22;3.50;;;1.05;;
54191;SDS011;40101;53.002;6.488;2022-07-06T04:25:49;5.65;;;1.10;;
54191;SDS011;40101;53.002;6.488;2022-07-06T04:28:14;5.63;;;1.90;;
54191;SDS011;40101;53.002;6.488;2022-07-06T04:30:40;6.00;;;1.67;;
54191;SDS011;40101;53.002;6.488;2022-07-06T04:33:06;4.85;;;2.17;;
54191;SDS011;40101;53.002;6.488;2022-07-06T04:35:32;3.60;;;1.55;;
54191;SDS011;40101;53.002;6.488;2022-07-06T04:37:57;3.67;;;1.48;;
54191;SDS011;40101;53.002;6.488;2022-07-06T04:40:23;3.67;;;1.15;;
54191;SDS011;40101;53.002;6.488;2022-07-06T04:42:49;6.07;;;0.98;;
54191;SDS011;40101;53.002;6.488;2022-07-06T04:45:14;4.97;;;0.90;;
54191;SDS011;40101;53.002;6.488;2022-07-06T04:47:40;3.03;;;1.00;;
54191;SDS011;40101;53.002;6.488;2022-07-06T04:50:07;3.88;;;1.13;;
54191;SDS011;40101;53.002;6.488;2022-07-06T04:52:33;6.28;;;1.20;;
54191;SDS011;40101;53.002;6.488;2022-07-06T04:54:58;3.35;;;0.98;;
54191;SDS011;40101;53.002;6.488;2022-07-06T04:57:24;9.05;;;1.45;;
54191;SDS011;40101;53.002;6.488;2022-07-06T04:59:51;4.30;;;1.00;;
54191;SDS011;40101;53.002;6.488;2022-07-06T05:02:17;5.55;;;1.50;;
54191;SDS011;40101;53.002;6.488;2022-07-06T05:04:43;3.30;;;1.00;;
54191;SDS011;40101;53.002;6.488;2022-07-06T05:07:08;7.68;;;1.00;;
54191;SDS011;40101;53.002;6.488;2022-07-06T05:09:34;2.30;;;1.02;;
54191;SDS011;40101;53.002;6.488;2022-07-06T05:12:00;4.15;;;0.95;;
54191;SDS011;40101;53.002;6.488;2022-07-06T05:14:25;3.35;;;0.90;;
54191;SDS011;40101;53.002;6.488;2022-07-06T05:16:51;2.47;;;1.00;;
54191;SDS011;40101;53.002;6.488;2022-07-06T05:19:17;4.38;;;0.80;;
54191;SDS011;40101;53.002;6.488;2022-07-06T05:21:42;4.45;;;1.00;;
54191;SDS011;40101;53.002;6.488;2022-07-06T05:24:08;6.97;;;1.20;;
54191;SDS011;40101;53.002;6.488;2022-07-06T05:26:34;4.43;;;1.08;;
54191;SDS011;40101;53.002;6.488;2022-07-06T05:29:02;2.28;;;0.95;;
54191;SDS011;40101;53.002;6.488;2022-07-06T05:31:28;3.20;;;0.70;;
54191;SDS011;40101;53.002;6.488;2022-07-06T05:33:54;4.57;;;0.98;;
54191;SDS011;40101;53.002;6.488;2022-07-06T05:36:19;7.32;;;1.33;;
54191;SDS011;40101;53.002;6.488;2022-07-06T05:38:45;4.50;;;1.42;;
54191;SDS011;40101;53.002;6.488;2022-07-06T05:41:11;4.45;;;0.73;;
54191;SDS011;40101;53.002;6.488;2022-07-06T05:43:37;5.43;;;1.00;;
54191;SDS011;40101;53.002;6.488;2022-07-06T05:46:04;7.53;;;0.75;;
54191;SDS011;40101;53.002;6.488;2022-07-06T05:48:29;4.43;;;0.93;;
54191;SDS011;40101;53.002;6.488;2022-07-06T05:51:14;4.57;;;1.15;;
54191;SDS011;40101;53.002;6.488;2022-07-06T05:53:39;7.63;;;2.05;;
54191;SDS011;40101;53.002;6.488;2022-07-06T05:56:05;5.82;;;1.60;;
54191;SDS011;40101;53.002;6.488;2022-07-06T05:58:31;2.63;;;0.73;;
54191;SDS011;40101;53.002;6.488;2022-07-06T06:00:56;3.15;;;0.70;;
54191;SDS011;40101;53.002;6.488;2022-07-06T06:03:22;5.93;;;0.90;;
54191;SDS011;40101;53.002;6.488;2022-07-06T06:05:48;3.50;;;0.75;;
54191;SDS011;40101;53.002;6.488;2022-07-06T06:08:14;3.20;;;0.75;;
54191;SDS011;40101;53.002;6.488;2022-07-06T06:10:40;4.55;;;0.93;;
54191;SDS011;40101;53.002;6.488;2022-07-06T06:13:05;3.53;;;0.63;;
54191;SDS011;40101;53.002;6.488;2022-07-06T06:15:31;3.00;;;0.80;;
54191;SDS011;40101;53.002;6.488;2022-07-06T06:17:56;5.90;;;0.75;;
54191;SDS011;40101;53.002;6.488;2022-07-06T06:20:22;5.43;;;0.80;;
54191;SDS011;40101;53.002;6.488;2022-07-06T06:22:53;2.47;;;0.50;;
54191;SDS011;40101;53.002;6.488;2022-07-06T06:25:21;4.35;;;0.60;;
54191;SDS011;40101;53.002;6.488;2022-07-06T06:27:55;1.92;;;0.50;;
54191;SDS011;40101;53.002;6.488;2022-07-06T06:30:21;4.93;;;0.75;;
54191;SDS011;40101;53.002;6.488;2022-07-06T06:32:46;2.30;;;0.50;;
54191;SDS011;40101;53.002;6.488;2022-07-06T06:35:12;2.85;;;0.70;;
54191;SDS011;40101;53.002;6.488;2022-07-06T06:37:38;2.83;;;0.60;;
54191;SDS011;40101;53.002;6.488;2022-07-06T06:40:04;3.72;;;0.60;;
54191;SDS011;40101;53.002;6.488;2022-07-06T06:42:31;3.50;;;1.00;;
54191;SDS011;40101;53.002;6.488;2022-07-06T06:44:57;4.03;;;1.58;;
54191;SDS011;40101;53.002;6.488;2022-07-06T06:47:23;3.47;;;0.95;;
54191;SDS011;40101;53.002;6.488;2022-07-06T06:49:49;4.40;;;0.80;;
54191;SDS011;40101;53.002;6.488;2022-07-06T06:52:17;4.22;;;0.88;;
54191;SDS011;40101;53.002;6.488;2022-07-06T06:54:43;2.40;;;0.50;;
54191;SDS011;40101;53.002;6.488;2022-07-06T06:57:09;3.28;;;0.70;;
54191;SDS011;40101;53.002;6.488;2022-07-06T06:59:38;2.80;;;0.52;;
54191;SDS011;40101;53.002;6.488;2022-07-06T07:02:06;2.20;;;0.65;;
54191;SDS011;40101;53.002;6.488;2022-07-06T07:04:32;3.50;;;0.60;;
54191;SDS011;40101;53.002;6.488;2022-07-06T07:06:57;4.63;;;1.17;;
54191;SDS011;40101;53.002;6.488;2022-07-06T07:09:23;2.40;;;0.73;;
54191;SDS011;40101;53.002;6.488;2022-07-06T07:11:49;1.92;;;0.45;;
54191;SDS011;40101;53.002;6.488;2022-07-06T07:14:15;5.40;;;0.68;;
54191;SDS011;40101;53.002;6.488;2022-07-06T07:16:43;1.98;;;0.68;;
54191;SDS011;40101;53.002;6.488;2022-07-06T07:19:09;1.55;;;0.40;;
54191;SDS011;40101;53.002;6.488;2022-07-06T07:21:35;2.22;;;0.80;;
54191;SDS011;40101;53.002;6.488;2022-07-06T07:24:01;4.60;;;0.68;;
54191;SDS011;40101;53.002;6.488;2022-07-06T07:26:26;3.30;;;0.60;;
54191;SDS011;40101;53.002;6.488;2022-07-06T07:28:52;2.80;;;0.68;;
54191;SDS011;40101;53.002;6.488;2022-07-06T07:31:18;2.40;;;0.60;;
54191;SDS011;40101;53.002;6.488;2022-07-06T07:33:43;5.25;;;0.50;;
54191;SDS011;40101;53.002;6.488;2022-07-06T07:36:09;4.20;;;0.63;;
54191;SDS011;40101;53.002;6.488;2022-07-06T07:38:35;1.70;;;0.40;;
54191;SDS011;40101;53.002;6.488;2022-07-06T07:41:00;1.38;;;0.52;;
54191;SDS011;40101;53.002;6.488;2022-07-06T07:43:26;3.85;;;0.45;;
54191;SDS011;40101;53.002;6.488;2022-07-06T07:45:52;2.25;;;0.47;;
54191;SDS011;40101;53.002;6.488;2022-07-06T07:48:18;2.22;;;0.43;;
54191;SDS011;40101;53.002;6.488;2022-07-06T07:50:44;3.50;;;0.43;;
54191;SDS011;40101;53.002;6.488;2022-07-06T07:53:09;5.18;;;0.82;;
54191;SDS011;40101;53.002;6.488;2022-07-06T07:55:35;3.05;;;0.45;;
54191;SDS011;40101;53.002;6.488;2022-07-06T07:58:01;3.17;;;0.65;;
54191;SDS011;40101;53.002;6.488;2022-07-06T08:00:27;1.73;;;0.90;;
54191;SDS011;40101;53.002;6.488;2022-07-06T08:02:54;2.47;;;0.65;;
54191;SDS011;40101;53.002;6.488;2022-07-06T08:05:20;3.22;;;0.50;;
54191;SDS011;40101;53.002;6.488;2022-07-06T08:07:46;2.42;;;0.65;;
54191;SDS011;40101;53.002;6.488;2022-07-06T08:10:12;3.03;;;0.40;;
54191;SDS011;40101;53.002;6.488;2022-07-06T08:12:37;1.50;;;0.45;;
54191;SDS011;40101;53.002;6.488;2022-07-06T08:15:04;1.98;;;0.65;;
54191;SDS011;40101;53.002;6.488;2022-07-06T08:17:30;1.40;;;0.57;;
54191;SDS011;40101;53.002;6.488;2022-07-06T08:19:56;2.00;;;0.88;;
54191;SDS011;40101;53.002;6.488;2022-07-06T08:22:22;1.55;;;0.38;;
54191;SDS011;40101;53.002;6.488;2022-07-06T08:24:48;4.90;;;1.02;;
54191;SDS011;40101;53.002;6.488;2022-07-06T08:27:14;1.63;;;0.38;;
54191;SDS011;40101;53.002;6.488;2022-07-06T08:29:40;1.33;;;0.43;;
54191;SDS011;40101;53.002;6.488;2022-07-06T08:32:05;3.67;;;0.52;;
54191;SDS011;40101;53.002;6.488;2022-07-06T08:34:31;3.03;;;0.40;;
54191;SDS011;40101;53.002;6.488;2022-07-06T08:36:57;2.97;;;0.40;;
54191;SDS011;40101;53.002;6.488;2022-07-06T08:39:23;2.08;;;0.47;;
54191;SDS011;40101;53.002;6.488;2022-07-06T08:41:48;0.68;;;0.45;;
54191;SDS011;40101;53.002;6.488;2022-07-06T08:44:16;1.42;;;0.30;;
54191;SDS011;40101;53.002;6.488;2022-07-06T08:46:43;3.22;;;0.60;;
54191;SDS011;40101;53.002;6.488;2022-07-06T08:49:12;3.50;;;0.30;;
54191;SDS011;40101;53.002;6.488;2022-07-06T08:51:40;2.72;;;0.52;;
54191;SDS011;40101;53.002;6.488;2022-07-06T08:54:07;1.08;;;0.30;;
54191;SDS011;40101;53.002;6.488;2022-07-06T08:56:33;1.75;;;0.40;;
54191;SDS011;40101;53.002;6.488;2022-07-06T08:58:59;1.77;;;1.23;;
54191;SDS011;40101;53.002;6.488;2022-07-06T09:01:25;1.15;;;0.30;;
54191;SDS011;40101;53.002;6.488;2022-07-06T09:03:51;2.47;;;0.73;;
54191;SDS011;40101;53.002;6.488;2022-07-06T09:06:23;2.05;;;0.30;;
54191;SDS011;40101;53.002;6.488;2022-07-06T09:08:52;3.92;;;0.85;;
54191;SDS011;40101;53.002;6.488;2022-07-06T09:11:23;2.13;;;0.50;;
54191;SDS011;40101;53.002;6.488;2022-07-06T09:13:50;0.70;;;0.30;;
54191;SDS011;40101;53.002;6.488;2022-07-06T09:16:17;2.08;;;0.40;;
54191;SDS011;40101;53.002;6.488;2022-07-06T09:18:43;2.47;;;0.32;;
54191;SDS011;40101;53.002;6.488;2022-07-06T09:21:10;0.82;;;0.30;;
54191;SDS011;40101;53.002;6.488;2022-07-06T09:23:36;1.42;;;0.30;;
54191;SDS011;40101;53.002;6.488;2022-07-06T09:26:06;2.60;;;0.47;;
54191;SDS011;40101;53.002;6.488;2022-07-06T09:28:44;3.80;;;0.43;;
54191;SDS011;40101;53.002;6.488;2022-07-06T09:31:10;1.20;;;0.30;;
54191;SDS011;40101;53.002;6.488;2022-07-06T09:33:37;3.50;;;0.35;;
54191;SDS011;40101;53.002;6.488;2022-07-06T09:36:03;1.40;;;0.40;;
54191;SDS011;40101;53.002;6.488;2022-07-06T09:38:30;2.90;;;0.50;;
54191;SDS011;40101;53.002;6.488;2022-07-06T09:40:56;1.98;;;0.50;;
54191;SDS011;40101;53.002;6.488;2022-07-06T09:43:23;2.00;;;0.60;;
54191;SDS011;40101;53.002;6.488;2022-07-06T09:45:53;3.05;;;0.40;;
54191;SDS011;40101;53.002;6.488;2022-07-06T09:48:27;2.63;;;0.30;;
54191;SDS011;40101;53.002;6.488;2022-07-06T09:50:54;4.13;;;0.50;;
54191;SDS011;40101;53.002;6.488;2022-07-06T09:53:30;4.00;;;0.40;;
54191;SDS011;40101;53.002;6.488;2022-07-06T09:55:57;2.05;;;0.40;;
54191;SDS011;40101;53.002;6.488;2022-07-06T09:59:11;2.42;;;0.40;;
54191;SDS011;40101;53.002;6.488;2022-07-06T10:01:38;1.27;;;0.40;;
54191;SDS011;40101;53.002;6.488;2022-07-06T10:04:06;1.75;;;0.50;;
54191;SDS011;40101;53.002;6.488;2022-07-06T10:06:32;2.33;;;0.40;;
54191;SDS011;40101;53.002;6.488;2022-07-06T10:08:58;1.42;;;0.30;;
54191;SDS011;40101;53.002;6.488;2022-07-06T10:11:24;2.60;;;0.50;;
54191;SDS011;40101;53.002;6.488;2022-07-06T10:13:54;1.92;;;0.50;;
54191;SDS011;40101;53.002;6.488;2022-07-06T10:16:25;1.40;;;0.30;;
54191;SDS011;40101;53.002;6.488;2022-07-06T10:18:51;2.53;;;0.52;;
54191;SDS011;40101;53.002;6.488;2022-07-06T10:21:21;1.25;;;0.50;;
54191;SDS011;40101;53.002;6.488;2022-07-06T10:23:48;1.65;;;0.40;;
54191;SDS011;40101;53.002;6.488;2022-07-06T10:26:16;1.90;;;0.45;;
54191;SDS011;40101;53.002;6.488;2022-07-06T10:28:43;6.32;;;0.60;;
54191;SDS011;40101;53.002;6.488;2022-07-06T10:31:11;2.47;;;0.68;;
54191;SDS011;40101;53.002;6.488;2022-07-06T10:33:38;1.88;;;0.28;;
54191;SDS011;40101;53.002;6.488;2022-07-06T10:36:05;1.15;;;0.22;;
54191;SDS011;40101;53.002;6.488;2022-07-06T10:41:39;2.15;;;0.50;;
54191;SDS011;40101;53.002;6.488;2022-07-06T10:44:15;1.52;;;0.32;;
54191;SDS011;40101;53.002;6.488;2022-07-06T10:46:49;2.33;;;0.50;;
54191;SDS011;40101;53.002;6.488;2022-07-06T10:55:28;3.15;;;0.55;;
54191;SDS011;40101;53.002;6.488;2022-07-06T10:57:55;2.53;;;0.50;;
54191;SDS011;40101;53.002;6.488;2022-07-06T11:00:24;1.02;;;0.43;;
54191;SDS011;40101;53.002;6.488;2022-07-06T11:11:42;1.60;;;0.60;;
54191;SDS011;40101;53.002;6.488;2022-07-06T11:16:58;0.93;;;0.22;;
54191;SDS011;40101;53.002;6.488;2022-07-06T11:19:33;1.45;;;0.30;;
54191;SDS011;40101;53.002;6.488;2022-07-06T11:24:35;2.85;;;0.50;;
54191;SDS011;40101;53.002;6.488;2022-07-06T11:27:03;1.05;;;0.30;;
54191;SDS011;40101;53.002;6.488;2022-07-06T11:29:30;3.45;;;0.35;;
54191;SDS011;40101;53.002;6.488;2022-07-06T11:31:59;1.55;;;0.30;;
54191;SDS011;40101;53.002;6.488;2022-07-06T11:34:26;1.42;;;0.75;;
54191;SDS011;40101;53.002;6.488;2022-07-06T11:37:03;1.65;;;0.30;;
54191;SDS011;40101;53.002;6.488;2022-07-06T11:39:37;0.75;;;0.35;;
54191;SDS011;40101;53.002;6.488;2022-07-06T11:42:06;1.40;;;0.65;;
54191;SDS011;40101;53.002;6.488;2022-07-06T11:44:33;4.13;;;0.70;;
54191;SDS011;40101;53.002;6.488;2022-07-06T11:46:59;1.25;;;0.38;;
54191;SDS011;40101;53.002;6.488;2022-07-06T11:49:27;1.80;;;0.43;;
54191;SDS011;40101;53.002;6.488;2022-07-06T11:51:55;2.30;;;0.52;;
54191;SDS011;40101;53.002;6.488;2022-07-06T11:54:21;2.28;;;0.35;;
54191;SDS011;40101;53.002;6.488;2022-07-06T11:56:52;2.75;;;0.60;;
54191;SDS011;40101;53.002;6.488;2022-07-06T11:59:23;3.15;;;0.32;;
54191;SDS011;40101;53.002;6.488;2022-07-06T12:02:12;1.90;;;0.40;;
54191;SDS011;40101;53.002;6.488;2022-07-06T12:04:38;3.72;;;0.50;;
54191;SDS011;40101;53.002;6.488;2022-07-06T12:07:06;2.05;;;0.47;;
54191;SDS011;40101;53.002;6.488;2022-07-06T12:09:42;2.13;;;0.52;;
54191;SDS011;40101;53.002;6.488;2022-07-06T12:17:54;1.65;;;0.52;;
54191;SDS011;40101;53.002;6.488;2022-07-06T12:20:20;3.08;;;0.50;;
54191;SDS011;40101;53.002;6.488;2022-07-06T12:22:46;1.77;;;0.40;;
54191;SDS011;40101;53.002;6.488;2022-07-06T12:25:12;0.68;;;0.30;;
54191;SDS011;40101;53.002;6.488;2022-07-06T12:27:55;1.13;;;0.30;;
54191;SDS011;40101;53.002;6.488;2022-07-06T12:30:20;1.67;;;0.50;;
54191;SDS011;40101;53.002;6.488;2022-07-06T12:32:46;1.38;;;0.30;;
54191;SDS011;40101;53.002;6.488;2022-07-06T12:35:12;2.05;;;0.50;;
54191;SDS011;40101;53.002;6.488;2022-07-06T12:37:38;2.03;;;0.50;;
54191;SDS011;40101;53.002;6.488;2022-07-06T12:40:19;2.00;;;0.50;;
54191;SDS011;40101;53.002;6.488;2022-07-06T12:42:48;1.30;;;0.55;;
54191;SDS011;40101;53.002;6.488;2022-07-06T12:45:14;2.28;;;0.47;;
54191;SDS011;40101;53.002;6.488;2022-07-06T12:47:40;0.50;;;0.30;;
54191;SDS011;40101;53.002;6.488;2022-07-06T12:50:09;2.00;;;0.40;;
54191;SDS011;40101;53.002;6.488;2022-07-06T12:52:36;3.17;;;0.52;;
54191;SDS011;40101;53.002;6.488;2022-07-06T12:55:02;0.57;;;0.40;;
54191;SDS011;40101;53.002;6.488;2022-07-06T12:57:36;3.63;;;0.50;;
54191;SDS011;40101;53.002;6.488;2022-07-06T13:00:11;3.03;;;0.40;;
54191;SDS011;40101;53.002;6.488;2022-07-06T13:02:37;3.63;;;0.60;;
54191;SDS011;40101;53.002;6.488;2022-07-06T13:05:07;1.08;;;0.30;;
54191;SDS011;40101;53.002;6.488;2022-07-06T13:07:35;1.45;;;0.32;;
54191;SDS011;40101;53.002;6.488;2022-07-06T13:10:03;2.33;;;0.35;;
54191;SDS011;40101;53.002;6.488;2022-07-06T13:12:32;2.95;;;0.70;;
54191;SDS011;40101;53.002;6.488;2022-07-06T13:14:58;4.20;;;0.93;;
54191;SDS011;40101;53.002;6.488;2022-07-06T13:17:24;0.90;;;0.40;;
54191;SDS011;40101;53.002;6.488;2022-07-06T13:19:50;2.72;;;0.73;;
54191;SDS011;40101;53.002;6.488;2022-07-06T13:22:16;2.58;;;0.40;;
54191;SDS011;40101;53.002;6.488;2022-07-06T13:24:41;2.03;;;0.52;;
54191;SDS011;40101;53.002;6.488;2022-07-06T13:27:07;5.38;;;0.50;;
54191;SDS011;40101;53.002;6.488;2022-07-06T13:33:14;1.20;;;0.60;;
54191;SDS011;40101;53.002;6.488;2022-07-06T13:36:00;2.00;;;0.30;;
54191;SDS011;40101;53.002;6.488;2022-07-06T13:38:44;1.75;;;0.32;;
54191;SDS011;40101;53.002;6.488;2022-07-06T13:41:22;4.95;;;0.95;;
54191;SDS011;40101;53.002;6.488;2022-07-06T13:43:48;0.70;;;0.38;;
54191;SDS011;40101;53.002;6.488;2022-07-06T13:46:13;0.77;;;0.30;;
54191;SDS011;40101;53.002;6.488;2022-07-06T13:54:08;1.58;;;0.70;;
54191;SDS011;40101;53.002;6.488;2022-07-06T13:56:36;2.60;;;0.40;;
54191;SDS011;40101;53.002;6.488;2022-07-06T13:59:02;5.90;;;1.27;;
54191;SDS011;40101;53.002;6.488;2022-07-06T14:01:28;6.55;;;0.50;;
54191;SDS011;40101;53.002;6.488;2022-07-06T14:03:54;1.75;;;0.55;;
54191;SDS011;40101;53.002;6.488;2022-07-06T14:06:19;1.08;;;0.50;;
54191;SDS011;40101;53.002;6.488;2022-07-06T14:08:45;5.68;;;2.00;;
54191;SDS011;40101;53.002;6.488;2022-07-06T14:11:11;1.52;;;0.50;;
54191;SDS011;40101;53.002;6.488;2022-07-06T14:13:37;2.30;;;0.63;;
54191;SDS011;40101;53.002;6.488;2022-07-06T14:16:03;1.08;;;0.43;;
54191;SDS011;40101;53.002;6.488;2022-07-06T14:18:30;2.05;;;0.47;;
54191;SDS011;40101;53.002;6.488;2022-07-06T14:20:56;1.88;;;0.50;;
54191;SDS011;40101;53.002;6.488;2022-07-06T14:23:22;1.15;;;0.40;;
54191;SDS011;40101;53.002;6.488;2022-07-06T14:25:49;2.45;;;0.60;;
54191;SDS011;40101;53.002;6.488;2022-07-06T14:28:15;3.95;;;0.95;;
54191;SDS011;40101;53.002;6.488;2022-07-06T14:30:42;2.28;;;0.77;;
54191;SDS011;40101;53.002;6.488;2022-07-06T14:33:09;3.20;;;0.60;;
54191;SDS011;40101;53.002;6.488;2022-07-06T14:35:36;3.40;;;1.55;;
54191;SDS011;40101;53.002;6.488;2022-07-06T14:38:04;1.50;;;0.50;;
54191;SDS011;40101;53.002;6.488;2022-07-06T14:40:30;5.30;;;0.57;;
54191;SDS011;40101;53.002;6.488;2022-07-06T14:42:57;1.73;;;0.77;;
54191;SDS011;40101;53.002;6.488;2022-07-06T14:45:23;5.95;;;1.10;;
54191;SDS011;40101;53.002;6.488;2022-07-06T14:47:49;1.65;;;0.60;;
54191;SDS011;40101;53.002;6.488;2022-07-06T14:50:15;1.77;;;0.70;;
54191;SDS011;40101;53.002;6.488;2022-07-06T14:52:42;1.90;;;0.50;;
54191;SDS011;40101;53.002;6.488;2022-07-06T14:55:07;3.03;;;0.85;;
54191;SDS011;40101;53.002;6.488;2022-07-06T14:57:33;1.35;;;0.45;;
54191;SDS011;40101;53.002;6.488;2022-07-06T14:59:59;0.65;;;0.55;;
54191;SDS011;40101;53.002;6.488;2022-07-06T15:02:25;2.80;;;0.52;;
54191;SDS011;40101;53.002;6.488;2022-07-06T15:04:51;1.73;;;0.40;;
54191;SDS011;40101;53.002;6.488;2022-07-06T15:07:16;2.22;;;0.57;;
54191;SDS011;40101;53.002;6.488;2022-07-06T15:09:42;2.70;;;0.65;;
54191;SDS011;40101;53.002;6.488;2022-07-06T15:12:08;2.20;;;0.70;;
54191;SDS011;40101;53.002;6.488;2022-07-06T15:14:34;3.03;;;0.85;;
54191;SDS011;40101;53.002;6.488;2022-07-06T15:17:00;4.10;;;0.80;;
54191;SDS011;40101;53.002;6.488;2022-07-06T15:19:26;2.15;;;0.95;;
54191;SDS011;40101;53.002;6.488;2022-07-06T15:21:52;2.38;;;0.90;;
54191;SDS011;40101;53.002;6.488;2022-07-06T15:24:18;3.17;;;0.80;;
54191;SDS011;40101;53.002;6.488;2022-07-06T15:26:44;3.97;;;1.05;;
54191;SDS011;40101;53.002;6.488;2022-07-06T15:29:10;4.53;;;0.90;;